Terminal Aerodrome Forecast
Issued by NWS Grand Forks, ND

Home | Current Version | Previous Version | Text Only | Print | Product List | Glossary Off
Versions: 1 2 3 4 5 6 7 8 9 10 11 12 13 14 15

000
FTUS43 KFGF 221720
TAFFAR
TAF
KFAR 221720Z 2218/2318 30012G20KT P6SM SCT150
     FM222000 29016G24KT P6SM FEW200
     FM230000 32012KT P6SM FEW200
     FM230300 29009KT P6SM FEW200
     FM231300 31015G22KT P6SM BKN030=

USA.gov is the U.S. government's official web portal to all federal, state and local government web resources and services.